Time;durP1;ratioP1;P1;durP2;ratioP2;P2;SDS_P1;SDS_P2;PMS_P1;PMS_P2;Temp;Humidity;BMP_temperature;BMP_pressure;BME280_temperature;BME280_humidity;BME280_pressure;Samples;Min_cycle;Max_cycle;Signal;HPM_P1;HPM_P2
2022/04/30 00:00:43;;;;;;;7.82;4.32;;;;;;;18.07;68.38;101888.88;5072376;28;20028;-81
2022/04/30 00:03:09;;;;;;;7.10;4.82;;;;;;;18.13;69.18;101893.53;5071900;28;20039;-81
2022/04/30 00:05:34;;;;;;;;;;;;;;;18.15;68.40;101890.09;5071601;28;20025;-81
2022/04/30 00:08:01;;;;;;;7.75;4.95;;;;;;;18.16;67.88;101880.41;5071998;28;19919;-81
2022/04/30 00:10:27;;;;;;;6.53;4.63;;;;;;;18.16;68.72;101885.72;5071448;28;20055;-81
2022/04/30 00:12:53;;;;;;;6.15;4.63;;;;;;;18.05;67.84;101877.34;5054183;28;20514;-81
2022/04/30 00:15:20;;;;;;;7.82;4.45;;;;;;;18.13;68.28;101893.53;5071106;28;20056;-81
2022/04/30 00:17:46;;;;;;;6.38;4.47;;;;;;;18.06;68.67;101879.16;5064260;28;20040;-81
2022/04/30 00:20:12;;;;;;;6.25;4.22;;;;;;;18.06;68.48;101871.22;5084081;28;20514;-81
2022/04/30 00:22:38;;;;;;;5.85;4.45;;;;;;;18.03;68.26;101882.59;5070180;28;20033;-81
2022/04/30 00:25:03;;;;;;;4.90;4.30;;;;;;;18.06;67.68;101879.16;5071990;28;20025;-81
2022/04/30 00:27:31;;;;;;;5.55;4.30;;;;;;;18.07;68.05;101884.50;5071756;28;20053;-81
2022/04/30 00:29:58;;;;;;;5.53;4.63;;;;;;;18.10;68.71;101879.34;5071571;28;20111;-81
2022/04/30 00:32:24;;;;;;;5.82;4.50;;;;;;;18.07;68.37;101873.03;5071779;28;20031;-80
2022/04/30 00:34:49;;;;;;;5.18;4.53;;;;;;;18.09;68.42;101877.53;5071989;28;20542;-80
2022/04/30 00:37:15;;;;;;;5.15;4.30;;;;;;;18.02;68.10;101871.94;5068909;28;20029;-81
2022/04/30 00:39:41;;;;;;;5.28;4.65;;;;;;;18.01;68.15;101870.13;5071799;28;20020;-81
2022/04/30 00:42:11;;;;;;;5.63;4.20;;;;;;;18.05;68.22;101872.94;5070577;28;20086;-81
2022/04/30 00:44:36;;;;;;;6.47;4.50;;;;;;;18.09;68.62;101876.63;5071633;28;20028;-81
2022/04/30 00:47:02;;;;;;;5.40;4.45;;;;;;;18.07;68.29;101870.38;5071200;28;20402;-80
2022/04/30 00:49:28;;;;;;;5.88;4.70;;;;;;;18.05;68.94;101859.72;5071929;28;20033;-80
2022/04/30 00:51:54;;;;;;;5.28;4.68;;;;;;;17.97;68.43;101852.31;5071483;28;20035;-81
2022/04/30 00:54:20;;;;;;;;;;;;;;;18.13;68.40;101870.63;5071938;28;20078;-80
2022/04/30 00:56:57;;;;;;;7.05;4.20;;;;;;;18.06;68.08;101872.13;5069815;28;20007;-80
2022/04/30 00:59:23;;;;;;;6.90;4.03;;;;;;;18.05;67.74;101861.47;5067798;28;20388;-80
2022/04/30 01:01:49;;;;;;;5.18;4.00;;;;;;;18.00;67.71;101858.66;5071299;28;20032;-81
2022/04/30 01:04:15;;;;;;;5.10;4.30;;;;;;;18.04;68.47;101860.59;5071667;28;20166;-80
2022/04/30 01:06:51;;;;;;;6.32;4.45;;;;;;;18.05;68.22;101861.47;5070865;28;20032;-81
2022/04/30 01:09:21;;;;;;;5.13;3.77;;;;;;;18.06;67.94;101858.03;5069976;28;20087;-81
2022/04/30 01:12:00;;;;;;;5.93;4.25;;;;;;;18.04;68.41;101852.66;5070129;28;20029;-80
2022/04/30 01:14:31;;;;;;;4.80;3.80;;;;;;;18.02;67.90;101848.16;5071353;28;20032;-80
2022/04/30 01:16:57;;;;;;;5.18;4.05;;;;;;;18.04;68.33;101851.75;5069625;28;20553;-80
2022/04/30 01:19:23;;;;;;;;;;;;;;;18.07;68.02;101846.59;5070209;28;20120;-80
2022/04/30 01:21:51;;;;;;;5.28;3.95;;;;;;;17.98;67.58;101838.28;5053373;28;20071;-80
2022/04/30 01:24:24;;;;;;;6.10;4.00;;;;;;;17.97;67.76;101841.75;5071234;28;20028;-80
2022/04/30 01:26:51;;;;;;;5.30;4.20;;;;;;;18.01;67.71;101855.19;5072706;28;20020;-80
2022/04/30 01:29:19;;;;;;;6.15;4.00;;;;;;;17.95;67.20;101847.00;5073858;28;20025;-81
2022/04/30 01:37:25;;;;;;;5.20;3.90;;;;;;;17.96;66.73;101850.53;5075583;28;20098;-81
2022/04/30 01:39:58;;;;;;;5.75;3.92;;;;;;;17.95;66.97;101852.28;5074835;28;20029;-80
2022/04/30 01:42:24;;;;;;;6.13;4.07;;;;;;;17.97;67.64;101860.25;5075033;28;20029;-80
2022/04/30 01:44:50;;;;;;;5.82;4.30;;;;;;;17.93;67.28;101851.31;5075035;28;20021;-81
2022/04/30 01:47:17;;;;;;;6.85;4.00;;;;;;;17.89;66.71;101847.66;5073883;28;20029;-80
2022/04/30 01:49:43;;;;;;;5.65;4.30;;;;;;;17.93;66.89;101855.69;5073242;28;20035;-81
2022/04/30 01:52:10;;;;;;;6.35;4.40;;;;;;;17.89;67.63;101844.09;5074840;28;20024;-81
2022/04/30 01:54:36;;;;;;;5.25;3.80;;;;;;;17.95;67.00;101847.00;5073648;28;20058;-80
2022/04/30 01:57:03;;;;;;;6.07;4.32;;;;;;;17.95;67.58;101847.00;5074699;28;20115;-80
2022/04/30 01:59:28;;;;;;;6.05;4.18;;;;;;;17.89;67.20;101839.72;5074102;28;20044;-80
2022/04/30 02:01:55;;;;;;;6.13;4.75;;;;;;;17.90;66.99;101844.16;5074802;28;20400;-80
2022/04/30 02:04:21;;;;;;;4.68;3.95;;;;;;;17.89;67.32;101841.47;5073211;28;20036;-80
2022/04/30 02:06:48;;;;;;;;;;;;;;;17.96;67.16;101845.25;5072881;28;20035;-80
2022/04/30 02:09:14;;;;;;;5.03;4.18;;;;;;;17.90;67.77;101841.50;5073416;28;19924;-80
2022/04/30 02:11:42;;;;;;;6.10;4.28;;;;;;;17.86;67.60;101836.03;5078603;28;20036;-79
2022/04/30 02:14:08;;;;;;;5.65;4.15;;;;;;;17.89;67.81;101841.47;5074443;28;20104;-80
2022/04/30 02:16:34;;;;;;;6.00;4.20;;;;;;;17.89;67.55;101846.75;5073381;28;20123;-80
2022/04/30 02:19:00;;;;;;;5.30;4.30;;;;;;;17.90;68.02;101843.25;5073492;28;20021;-80
2022/04/30 02:21:26;;;;;;;;;;;;;;;17.94;68.28;101846.94;5073623;28;20615;-80
2022/04/30 02:23:56;;;;;;;5.07;4.22;;;;;;;17.87;67.52;101845.78;5072191;28;19959;-80
2022/04/30 02:26:22;;;;;;;5.88;4.13;;;;;;;17.83;67.06;101850.03;5073063;28;20484;-80
2022/04/30 02:28:48;;;;;;;4.70;3.67;;;;;;;17.81;67.48;101842.84;5073021;28;20058;-80
2022/04/30 02:31:25;;;;;;;5.45;4.30;;;;;;;17.86;67.43;101846.59;5074208;28;20067;-80
2022/04/30 02:33:56;;;;;;;5.85;4.25;;;;;;;17.79;67.11;101833.94;5073719;28;20497;-80
2022/04/30 02:36:26;;;;;;;6.65;4.25;;;;;;;17.84;67.58;101837.72;5074023;28;20040;-80
2022/04/30 02:38:56;;;;;;;5.53;4.38;;;;;;;17.87;67.22;101838.75;5072182;28;20028;-80
2022/04/30 02:41:22;;;;;;;7.07;4.95;;;;;;;17.85;67.63;101842.19;5072857;28;20420;-80
2022/04/30 02:43:51;;;;;;;5.50;4.45;;;;;;;17.85;67.20;101840.44;5073623;28;20074;-80
2022/04/30 02:46:20;;;;;;;8.60;5.05;;;;;;;17.79;67.07;101836.59;5073926;28;20071;-80
2022/04/30 02:48:46;;;;;;;7.22;4.65;;;;;;;17.83;67.51;101847.38;5073661;28;20017;-80
2022/04/30 02:51:12;;;;;;;;;;;;;;;17.90;68.24;101840.59;5072628;28;20043;-80
2022/04/30 02:53:38;;;;;;;6.25;4.43;;;;;;;17.81;67.87;101834.91;5073512;28;19913;-81
2022/04/30 02:56:04;;;;;;;;;;;;;;;17.88;67.81;101834.34;5074242;28;20029;-80
2022/04/30 03:01:14;;;;;;;6.93;5.00;;;;;;;17.82;67.82;101829.75;5073668;28;20039;-80
2022/04/30 03:03:40;;;;;;;7.05;4.82;;;;;;;17.79;67.45;101839.25;5073130;28;20016;-80
2022/04/30 03:06:07;;;;;;;6.15;4.47;;;;;;;17.80;67.15;101844.59;5073712;28;20028;-80
2022/04/30 03:08:33;;;;;;;7.78;4.93;;;;;;;17.77;67.37;101840.91;5073473;28;20029;-80
2022/04/30 03:11:00;;;;;;;6.32;4.68;;;;;;;17.73;67.74;101837.22;5073221;28;20121;-80
2022/04/30 03:13:26;;;;;;;7.60;5.20;;;;;;;17.74;67.64;101840.75;5073140;28;20033;-80
2022/04/30 03:15:55;;;;;;;8.13;5.10;;;;;;;17.71;67.29;101838.91;5072140;28;20115;-80
2022/04/30 03:23:51;;;;;;;7.50;5.53;;;;;;;17.79;67.24;101847.16;5073011;28;20079;-80
2022/04/30 03:26:19;;;;;;;7.68;5.00;;;;;;;17.77;67.57;101848.84;5072912;28;20060;-80
2022/04/30 03:28:47;;;;;;;6.82;5.55;;;;;;;17.77;67.25;101849.75;5071645;28;20409;-80
2022/04/30 03:31:15;;;;;;;8.40;5.30;;;;;;;17.76;66.95;101845.31;5071808;28;20025;-80
2022/04/30 03:33:43;;;;;;;8.55;6.10;;;;;;;17.68;67.45;101837.03;5071453;28;20040;-80
2022/04/30 03:36:11;;;;;;;7.03;5.82;;;;;;;17.70;67.68;101839.75;5072888;28;20112;-80
2022/04/30 03:38:37;;;;;;;7.55;6.07;;;;;;;17.74;67.36;101844.34;5072911;28;20539;-80
2022/04/30 03:41:05;;;;;;;8.52;6.13;;;;;;;17.75;67.02;101843.47;5066965;28;20025;-82
2022/04/30 03:43:31;;;;;;;8.38;6.18;;;;;;;17.74;67.38;101848.69;5053286;28;20087;-82
2022/04/30 03:45:57;;;;;;;;;;;;;;;17.77;67.12;101854.13;5062272;28;20029;-82
2022/04/30 03:48:22;;;;;;;8.20;6.00;;;;;;;17.68;67.23;101855.53;5053687;28;20404;-82
2022/04/30 03:50:48;;;;;;;9.35;6.28;;;;;;;17.72;67.65;101853.03;5051595;28;20079;-82
2022/04/30 03:53:14;;;;;;;8.57;6.07;;;;;;;17.70;67.10;101860.91;5064111;28;20063;-82
2022/04/30 03:55:39;;;;;;;9.60;6.40;;;;;;;17.65;67.44;101859.78;5071908;28;20424;-83
2022/04/30 03:58:05;;;;;;;7.88;6.22;;;;;;;17.68;66.83;101870.50;5072237;28;20035;-83
2022/04/30 04:00:31;;;;;;;7.78;5.68;;;;;;;17.73;68.67;101875.97;5072229;28;20051;-82
2022/04/30 04:02:59;;;;;;;8.85;6.05;;;;;;;17.67;67.57;101874.88;5071909;28;20066;-82
2022/04/30 04:05:26;;;;;;;8.70;6.20;;;;;;;17.70;67.32;101874.09;5071058;28;20021;-82
2022/04/30 04:07:52;;;;;;;8.23;6.20;;;;;;;17.62;67.31;101871.13;5070981;28;20401;-82
2022/04/30 04:10:17;;;;;;;8.20;5.30;;;;;;;17.68;67.06;101889.88;5067581;28;20498;-82
2022/04/30 04:12:43;;;;;;;8.63;5.85;;;;;;;17.68;67.30;101875.78;5066852;28;20508;-82
2022/04/30 04:17:54;;;;;;;8.75;6.18;;;;;;;17.64;67.14;101887.94;5052074;28;20075;-82
2022/04/30 04:20:24;;;;;;;7.70;5.63;;;;;;;17.64;67.34;101885.31;5051979;28;20025;-82
2022/04/30 04:22:51;;;;;;;8.23;5.30;;;;;;;17.65;67.59;101894.13;5065783;28;20070;-82
2022/04/30 04:28:00;;;;;;;6.88;5.50;;;;;;;17.64;67.20;101887.03;5071832;28;20028;-82
2022/04/30 04:30:27;;;;;;;6.65;5.50;;;;;;;17.66;67.00;101885.38;5070375;28;20080;-82
2022/04/30 04:32:54;;;;;;;8.18;5.20;;;;;;;17.65;66.93;101888.84;5071311;28;20032;-82
2022/04/30 04:35:20;;;;;;;6.65;5.35;;;;;;;17.58;67.62;101884.13;5071815;28;20024;-83
2022/04/30 04:37:46;;;;;;;8.32;5.63;;;;;;;17.64;67.34;101901.16;5070284;28;20386;-83
2022/04/30 04:40:13;;;;;;;6.95;5.32;;;;;;;17.62;66.67;101899.28;5071548;28;20107;-82
2022/04/30 04:42:40;;;;;;;6.25;5.30;;;;;;;17.58;67.25;101892.97;5071250;28;20056;-83
2022/04/30 04:45:07;;;;;;;7.38;5.63;;;;;;;17.62;67.00;101901.94;5070416;28;20020;-83
2022/04/30 04:47:37;;;;;;;7.57;5.13;;;;;;;17.61;66.75;101911.59;5071501;28;20127;-82
2022/04/30 04:50:03;;;;;;;8.25;5.45;;;;;;;17.62;66.54;101904.56;5071515;28;20028;-81
2022/04/30 04:52:29;;;;;;;7.85;5.20;;;;;;;17.57;66.60;101901.72;5071314;28;20108;-82
2022/04/30 04:54:55;;;;;;;7.45;5.45;;;;;;;17.59;66.98;101908.00;5069263;28;20108;-82
2022/04/30 04:57:21;;;;;;;7.25;5.20;;;;;;;17.60;67.21;101901.84;5070657;28;20028;-82
2022/04/30 04:59:46;;;;;;;7.22;5.05;;;;;;;17.62;66.39;101896.66;5071111;28;20036;-82
2022/04/30 05:02:12;;;;;;;6.53;4.95;;;;;;;17.54;66.72;101895.41;5070015;28;20094;-82
2022/04/30 05:04:37;;;;;;;8.30;5.43;;;;;;;17.63;66.45;101907.28;5070986;28;20042;-80
2022/04/30 05:07:03;;;;;;;7.72;5.30;;;;;;;17.59;66.90;101893.84;5071897;28;20041;-81
2022/04/30 05:09:31;;;;;;;8.50;4.95;;;;;;;17.60;67.11;101903.59;5073557;28;20052;-81
2022/04/30 05:12:01;;;;;;;5.95;4.60;;;;;;;17.54;66.59;101893.66;5071970;28;20076;-80
2022/04/30 05:14:31;;;;;;;6.43;5.18;;;;;;;17.58;66.38;101900.88;5070976;28;20102;-80
2022/04/30 05:16:57;;;;;;;7.18;4.75;;;;;;;17.57;66.38;101906.09;5071278;28;20067;-80
2022/04/30 05:19:23;;;;;;;7.97;5.10;;;;;;;17.52;66.48;101889.16;5071377;28;20082;-81
2022/04/30 05:21:49;;;;;;;7.38;5.57;;;;;;;17.55;66.41;101911.31;5071134;28;20028;-81
2022/04/30 05:24:14;;;;;;;6.88;5.38;;;;;;;17.54;66.41;101900.69;5071082;28;20078;-81
2022/04/30 05:26:40;;;;;;;7.75;4.88;;;;;;;17.52;67.18;101905.00;5070800;28;20024;-80
2022/04/30 05:29:06;;;;;;;7.18;4.88;;;;;;;17.49;66.55;101904.03;5071228;28;20592;-81
2022/04/30 05:31:31;;;;;;;6.85;5.03;;;;;;;17.50;66.66;101900.56;5071298;28;20451;-81
2022/04/30 05:33:57;;;;;;;8.77;5.07;;;;;;;17.47;66.57;101902.16;5071239;28;20445;-80
2022/04/30 05:36:23;;;;;;;6.75;5.13;;;;;;;17.52;66.78;101899.72;5070087;28;20036;-80
2022/04/30 05:38:48;;;;;;;7.72;5.38;;;;;;;17.52;66.55;101899.72;5076333;28;20020;-81
2022/04/30 05:41:14;;;;;;;7.25;4.57;;;;;;;17.46;67.10;101895.97;5068692;28;20116;-81
2022/04/30 05:43:40;;;;;;;7.88;5.13;;;;;;;17.46;66.77;101892.41;5067505;28;20025;-80
2022/04/30 05:46:07;;;;;;;6.57;5.18;;;;;;;17.50;66.73;101900.56;5070918;28;20485;-81
2022/04/30 05:48:32;;;;;;;7.95;5.28;;;;;;;17.46;66.48;101895.06;5071260;28;20021;-80
2022/04/30 05:50:58;;;;;;;8.32;5.18;;;;;;;17.45;67.05;101904.72;5072811;28;20093;-80
2022/04/30 05:53:24;;;;;;;8.23;5.72;;;;;;;17.54;67.15;101916.53;5082779;28;20086;-81
2022/04/30 05:55:49;;;;;;;6.38;5.05;;;;;;;17.47;68.10;101908.34;5082837;28;20077;-81
2022/04/30 05:58:15;;;;;;;7.75;5.10;;;;;;;17.46;67.54;101906.56;5071960;28;20103;-81
2022/04/30 06:00:41;;;;;;;6.00;5.03;;;;;;;17.49;67.57;101903.13;5076249;28;20419;-82
2022/04/30 06:03:06;;;;;;;7.32;5.35;;;;;;;17.44;67.70;101897.66;5080504;28;20048;-82
2022/04/30 06:05:37;;;;;;;8.73;5.00;;;;;;;17.46;67.71;101905.63;5082808;28;20080;-81
2022/04/30 06:08:04;;;;;;;6.72;4.82;;;;;;;17.44;67.67;101900.28;5081718;28;20505;-82
2022/04/30 06:10:30;;;;;;;8.15;4.90;;;;;;;17.52;67.16;101910.28;5061244;28;20048;-81
2022/04/30 06:12:57;;;;;;;7.18;4.88;;;;;;;17.50;66.99;101903.22;5078659;28;20040;-81
2022/04/30 06:15:22;;;;;;;7.10;4.75;;;;;;;17.51;67.30;101906.75;5071420;28;20058;-81
2022/04/30 06:17:48;;;;;;;6.10;5.18;;;;;;;17.48;67.99;101901.31;5066991;28;20037;-81
2022/04/30 06:20:14;;;;;;;7.45;4.95;;;;;;;17.54;67.86;101912.16;5092703;28;20031;-82
2022/04/30 06:22:40;;;;;;;5.85;4.82;;;;;;;17.50;67.75;101902.28;5065916;28;20036;-82
2022/04/30 06:25:06;;;;;;;;;;;;;;;17.55;67.95;101908.69;5068618;28;20059;-81
2022/04/30 06:27:32;;;;;;;6.50;4.18;;;;;;;17.49;67.75;101900.50;5071750;28;19955;-81
2022/04/30 06:29:59;;;;;;;6.45;4.63;;;;;;;17.44;68.06;101897.66;5069177;28;20583;-82
2022/04/30 06:32:24;;;;;;;;;;;;;;;17.56;68.00;101906.94;5074385;28;20021;-82
2022/04/30 06:34:50;;;;;;;5.78;4.65;;;;;;;17.48;68.16;101904.88;5072709;28;19919;-82
2022/04/30 06:37:17;;;;;;;6.57;4.70;;;;;;;17.45;68.15;101899.44;5072539;28;20033;-81
2022/04/30 06:39:43;;;;;;;6.32;4.70;;;;;;;17.49;68.18;101903.13;5073505;28;20086;-86
2022/04/30 06:42:09;;;;;;;5.30;4.65;;;;;;;17.44;68.30;101897.66;5067315;28;20024;-81
2022/04/30 06:44:34;;;;;;;5.80;4.47;;;;;;;17.45;68.52;101901.19;5066893;28;20033;-81
2022/04/30 06:47:00;;;;;;;6.10;4.70;;;;;;;17.54;68.08;101898.03;5073402;28;20116;-81
2022/04/30 06:49:26;;;;;;;5.95;4.35;;;;;;;17.54;68.03;101904.22;5049210;28;20527;-80
2022/04/30 06:51:52;;;;;;;6.93;4.63;;;;;;;17.53;68.13;101890.97;5059122;28;20098;-80
2022/04/30 06:57:12;;;;;;;6.07;4.35;;;;;;;17.58;68.07;101900.00;5072436;28;20090;-80
2022/04/30 06:59:41;;;;;;;4.35;3.95;;;;;;;17.47;68.53;101902.16;5081284;28;20408;-80
2022/04/30 07:02:12;;;;;;;5.05;4.05;;;;;;;17.58;68.22;101908.81;5073846;28;20052;-81
2022/04/30 07:04:41;;;;;;;4.10;3.70;;;;;;;17.59;68.27;101905.34;5081722;28;20032;-80
2022/04/30 07:07:10;;;;;;;4.55;3.97;;;;;;;17.58;68.17;101907.91;5091925;28;20512;-80
2022/04/30 07:09:37;;;;;;;5.47;4.00;;;;;;;17.55;68.12;101897.22;5072629;28;20136;-81
2022/04/30 07:12:06;;;;;;;5.13;4.18;;;;;;;17.55;67.84;101897.22;5071733;28;20044;-81
2022/04/30 07:14:36;;;;;;;5.70;4.47;;;;;;;17.61;67.95;101906.31;5072665;28;20059;-81
2022/04/30 07:17:06;;;;;;;5.47;4.35;;;;;;;17.66;68.08;101911.78;5082834;28;20016;-82
2022/04/30 07:19:32;;;;;;;4.40;3.60;;;;;;;17.64;67.86;101905.53;5075940;28;20028;-83
2022/04/30 07:21:58;;;;;;;4.95;4.03;;;;;;;17.52;67.78;101897.97;5072747;28;20036;-82
2022/04/30 07:24:23;;;;;;;5.43;3.72;;;;;;;17.58;68.03;101911.44;5073398;28;20102;-82
2022/04/30 07:26:49;;;;;;;5.97;3.92;;;;;;;17.65;67.67;101924.09;5071322;28;20024;-81
2022/04/30 07:29:15;;;;;;;4.55;4.10;;;;;;;17.66;67.65;101920.63;5071866;28;20029;-82
2022/04/30 07:31:40;;;;;;;4.10;3.70;;;;;;;17.64;67.57;101914.34;5071681;28;20084;-83
2022/04/30 07:34:09;;;;;;;6.20;3.92;;;;;;;17.66;67.56;101922.38;5072843;28;20036;-82
2022/04/30 07:36:35;;;;;;;5.35;3.70;;;;;;;17.62;67.65;101909.84;5072863;28;20078;-81
2022/04/30 07:39:00;;;;;;;4.40;4.00;;;;;;;17.65;67.88;101913.53;5071969;28;20032;-82
2022/04/30 07:41:26;;;;;;;4.00;3.60;;;;;;;17.62;68.05;101904.56;5077084;28;20024;-82
2022/04/30 07:43:51;;;;;;;4.05;3.63;;;;;;;17.66;67.86;101915.34;5071926;28;20111;-82
2022/04/30 07:46:17;;;;;;;4.80;3.50;;;;;;;17.66;68.09;101914.44;5072078;28;20095;-83
2022/04/30 07:48:43;;;;;;;4.63;4.10;;;;;;;17.63;67.93;101911.66;5071825;28;20555;-82
2022/04/30 07:51:17;;;;;;;5.53;3.70;;;;;;;17.66;68.08;101910.03;5071205;28;20431;-83
2022/04/30 07:53:42;;;;;;;4.53;3.80;;;;;;;17.64;68.20;101903.78;5072516;28;20028;-82
2022/04/30 07:56:08;;;;;;;6.38;3.80;;;;;;;17.66;67.93;101904.75;5072475;28;20074;-82
2022/04/30 07:58:34;;;;;;;4.47;3.80;;;;;;;17.62;68.10;101908.09;5071036;28;20029;-82
2022/04/30 08:01:00;;;;;;;5.18;3.88;;;;;;;17.52;68.11;101879.47;5072462;28;20674;-82
2022/04/30 08:03:26;;;;;;;6.35;3.72;;;;;;;17.62;67.82;101879.06;5088940;28;20488;-81
2022/04/30 08:05:51;;;;;;;4.30;3.90;;;;;;;17.68;67.85;101892.53;5070712;28;20075;-81
2022/04/30 08:08:17;;;;;;;4.72;3.58;;;;;;;17.66;68.27;101891.56;5067742;28;20040;-81
2022/04/30 08:10:45;;;;;;;4.20;3.65;;;;;;;17.57;68.11;101874.41;5074400;28;20075;-82
2022/04/30 08:13:11;;;;;;;4.57;3.72;;;;;;;17.62;68.38;101896.66;5077826;28;20107;-82
2022/04/30 08:15:43;;;;;;;3.75;3.40;;;;;;;17.62;68.48;101888.72;5088835;28;20032;-81
2022/04/30 08:18:09;;;;;;;5.53;3.70;;;;;;;17.48;68.08;101869.63;5107445;28;20028;-82
2022/04/30 08:20:37;;;;;;;4.43;3.70;;;;;;;17.63;67.96;101885.22;5087521;28;20397;-81
2022/04/30 08:23:04;;;;;;;4.13;3.63;;;;;;;17.68;68.22;101889.00;5075530;28;20037;-82
2022/04/30 08:25:30;;;;;;;3.90;3.50;;;;;;;17.63;68.20;101882.59;5071701;28;20032;-81
2022/04/30 08:27:55;;;;;;;3.97;3.58;;;;;;;17.69;67.95;101885.50;5071760;28;20025;-81
2022/04/30 08:30:21;;;;;;;4.13;3.60;;;;;;;17.61;68.23;101887.81;5071307;28;20099;-81
2022/04/30 08:32:50;;;;;;;3.55;3.25;;;;;;;17.65;68.27;101894.13;5070844;28;20142;-82
2022/04/30 08:35:15;;;;;;;4.20;3.80;;;;;;;17.70;68.31;101895.25;5083378;28;20060;-82
2022/04/30 08:37:41;;;;;;;5.28;3.75;;;;;;;17.72;68.16;101896.22;5051286;28;20493;-82
2022/04/30 08:40:07;;;;;;;4.30;3.90;;;;;;;17.63;67.95;101877.31;5058140;28;20134;-81
2022/04/30 08:42:33;;;;;;;;;;;;;;;17.72;68.30;101885.63;5071952;28;20025;-81
2022/04/30 08:45:02;;;;;;;4.20;3.65;;;;;;;17.75;68.04;101879.56;5071669;28;19920;-82
2022/04/30 08:47:30;;;;;;;4.45;3.67;;;;;;;17.72;68.05;101877.72;5057905;28;20086;-82
2022/04/30 08:49:56;;;;;;;4.70;3.47;;;;;;;17.75;68.12;101876.94;5073097;28;21792;-82
2022/04/30 08:52:21;;;;;;;;;;;;;;;17.78;67.98;101885.91;5079309;28;20408;-82
2022/04/30 08:54:47;;;;;;;3.88;3.55;;;;;;;17.76;68.03;101887.56;5069979;28;19916;-82
2022/04/30 08:57:14;;;;;;;3.95;3.38;;;;;;;17.73;68.15;101881.25;5071370;28;20037;-82
2022/04/30 08:59:40;;;;;;;5.00;3.80;;;;;;;17.72;68.29;101876.81;5071350;28;20036;-82
2022/04/30 09:02:11;;;;;;;3.75;3.45;;;;;;;17.75;67.85;101890.16;5071042;28;20037;-83
2022/04/30 09:04:46;;;;;;;5.00;3.45;;;;;;;17.70;68.28;101871.47;5070148;28;20191;-82
2022/04/30 09:07:21;;;;;;;4.00;3.50;;;;;;;17.67;68.25;101866.03;5069841;28;20058;-82
2022/04/30 09:10:07;;;;;;;3.72;3.40;;;;;;;17.34;68.21;101805.66;5070611;28;20095;-82
2022/04/30 09:12:34;;;;;;;4.43;3.53;;;;;;;17.29;68.15;101800.19;5069921;28;20020;-82
2022/04/30 09:15:16;;;;;;;5.18;3.63;;;;;;;17.48;68.57;101827.38;5069201;28;20043;-82
2022/04/30 09:17:42;;;;;;;6.18;4.00;;;;;;;17.61;68.15;101849.91;5069383;28;20034;-82
2022/04/30 09:20:18;;;;;;;4.10;3.70;;;;;;;17.27;67.86;101786.03;5052146;28;20032;-82
2022/04/30 09:22:48;;;;;;;3.53;3.20;;;;;;;17.35;68.16;101809.19;5052777;28;20029;-82
2022/04/30 09:25:15;;;;;;;3.88;3.35;;;;;;;17.31;68.27;101800.22;5069416;28;20032;-84
2022/04/30 09:27:49;;;;;;;5.10;3.53;;;;;;;17.36;68.35;101816.31;5063921;28;20021;-84
2022/04/30 09:30:20;;;;;;;4.00;3.60;;;;;;;17.81;67.81;101891.31;5054736;28;20514;-84
2022/04/30 09:32:57;;;;;;;3.95;3.25;;;;;;;17.61;68.31;101861.41;5068566;28;20059;-83
2022/04/30 09:38:15;;;;;;;3.75;3.38;;;;;;;17.68;68.19;101881.06;5084259;28;20464;-84
2022/04/30 09:41:00;;;;;;;4.50;3.60;;;;;;;17.80;68.21;101905.38;5068135;28;20473;-83
2022/04/30 09:43:34;;;;;;;4.65;3.85;;;;;;;17.24;68.09;101795.53;5068861;28;20111;-83
2022/04/30 09:46:06;;;;;;;4.38;3.28;;;;;;;17.25;67.96;101811.47;5068803;28;20064;-83
2022/04/30 09:54:05;;;;;;;3.83;3.35;;;;;;;17.21;68.10;101795.41;5072112;28;20417;-83
2022/04/30 09:56:40;;;;;;;5.43;3.65;;;;;;;17.52;68.54;101850.44;5055869;28;20033;-84
2022/04/30 09:59:28;;;;;;;4.78;3.25;;;;;;;17.63;68.21;101859.75;5072706;28;20094;-83
2022/04/30 10:01:56;;;;;;;3.90;3.47;;;;;;;17.42;68.21;101820.09;5071164;28;20578;-83
2022/04/30 10:04:26;;;;;;;5.30;3.33;;;;;;;17.62;68.18;101859.66;5072790;28;20039;-84
2022/04/30 10:06:53;;;;;;;4.80;3.72;;;;;;;17.62;68.22;101854.38;5072247;28;20416;-83
2022/04/30 10:09:32;;;;;;;4.45;3.50;;;;;;;17.21;68.08;101775.19;5056077;28;20080;-84
2022/04/30 10:12:05;;;;;;;3.63;3.28;;;;;;;17.28;68.41;101793.09;5071640;28;20036;-83
2022/04/30 10:15:16;;;;;;;6.80;3.97;;;;;;;17.81;68.33;101874.56;5071828;28;20031;-83
2022/04/30 10:17:58;;;;;;;;;;;;;;;;;;;;;
2022/04/30 10:20:35;;;;;;;4.25;3.47;;;;;;;17.27;68.36;101767.53;5079763;28;20031;-84
2022/04/30 10:23:08;;;;;;;4.70;3.55;;;;;;;17.24;68.32;101762.13;5070948;28;20044;-83
2022/04/30 10:25:43;;;;;;;4.65;3.58;;;;;;;17.79;68.38;101850.69;5072483;28;20032;-84
2022/04/30 10:28:17;;;;;;;3.95;3.50;;;;;;;17.81;67.97;101849.03;5052438;28;20040;-84
2022/04/30 10:31:10;;;;;;;4.30;3.35;;;;;;;17.33;67.87;101760.72;5070127;28;20032;-84
2022/04/30 10:33:49;;;;;;;5.00;3.50;;;;;;;17.36;67.58;101761.75;5070970;28;20111;-85
2022/04/30 10:36:16;;;;;;;5.35;3.88;;;;;;;17.67;68.12;101811.47;5066801;28;20028;-85
2022/04/30 10:39:02;;;;;;;4.90;3.83;;;;;;;17.45;67.62;101769.16;5054724;28;20124;-86
2022/04/30 10:41:53;;;;;;;4.80;3.80;;;;;;;17.38;67.44;101756.53;5070220;28;20024;-84
2022/04/30 10:44:33;;;;;;;4.68;3.65;;;;;;;17.27;67.42;101743.78;5056435;28;20036;-84
2022/04/30 10:47:19;;;;;;;6.07;4.00;;;;;;;17.36;67.23;101743.28;5070265;28;20181;-83
2022/04/30 10:49:53;;;;;;;3.75;3.30;;;;;;;17.36;67.13;101745.00;5069877;28;20565;-83
2022/04/30 10:52:25;;;;;;;7.63;3.40;;;;;;;17.56;66.80;101788.09;5068562;28;20040;-83
2022/04/30 10:54:58;;;;;;;3.83;3.45;;;;;;;17.46;67.60;101763.94;5069987;28;20037;-85
2022/04/30 10:57:25;;;;;;;7.35;3.40;;;;;;;17.63;67.21;101793.69;5070215;28;20062;-85
2022/04/30 11:00:02;;;;;;;4.20;3.47;;;;;;;17.30;66.99;101725.41;5070924;28;20493;-83
2022/04/30 11:02:34;;;;;;;5.57;3.90;;;;;;;17.50;67.57;101757.03;5053856;28;20072;-82
2022/04/30 11:05:01;;;;;;;4.72;3.75;;;;;;;17.55;67.08;101775.72;5071323;28;20078;-85
2022/04/30 11:07:33;;;;;;;4.07;3.60;;;;;;;17.47;67.38;101765.72;5054334;28;20039;-84
2022/04/30 11:10:00;;;;;;;5.95;3.85;;;;;;;17.58;66.69;101775.84;5071422;28;20068;-85
2022/04/30 11:12:33;;;;;;;5.40;3.90;;;;;;;17.29;66.77;101725.34;5075507;28;20028;-83
2022/04/30 11:15:04;;;;;;;4.78;3.70;;;;;;;17.46;66.40;101749.81;5061109;28;20127;-85
2022/04/30 11:17:42;;;;;;;4.78;4.05;;;;;;;17.55;65.78;101752.84;5055730;28;20028;-85
2022/04/30 11:20:24;;;;;;;4.47;3.70;;;;;;;17.39;66.56;101729.28;5078533;28;20029;-85
2022/04/30 11:23:00;;;;;;;5.57;3.70;;;;;;;17.92;66.74;101806.31;5071188;28;20494;-84
2022/04/30 11:25:38;;;;;;;6.93;3.80;;;;;;;17.91;66.13;101797.50;5071005;28;20049;-84
2022/04/30 11:28:12;;;;;;;4.70;3.90;;;;;;;17.37;66.00;101701.91;5092891;28;20031;-84
2022/04/30 11:30:42;;;;;;;4.57;3.65;;;;;;;17.38;66.75;101709.91;5074385;28;20028;-84
2022/04/30 11:33:10;;;;;;;5.57;4.13;;;;;;;17.31;66.66;101692.00;5074371;28;20028;-84
2022/04/30 11:35:38;;;;;;;4.80;4.10;;;;;;;17.56;66.76;101743.19;5088571;28;20120;-84
2022/04/30 11:38:10;;;;;;;6.18;4.03;;;;;;;17.37;66.39;101705.44;5059112;28;20453;-84
2022/04/30 11:40:47;;;;;;;5.60;4.20;;;;;;;17.47;66.42;101717.31;5096281;28;20024;-85
2022/04/30 11:43:24;;;;;;;5.07;3.80;;;;;;;17.34;66.73;101699.16;5087513;28;20032;-85
2022/04/30 11:46:00;;;;;;;6.53;3.90;;;;;;;17.59;67.09;101748.56;5082631;28;20493;-84
2022/04/30 11:48:45;;;;;;;5.90;3.78;;;;;;;17.37;66.87;101710.72;5070222;28;20051;-84
2022/04/30 11:51:13;;;;;;;4.75;3.80;;;;;;;17.32;66.40;101695.56;5070417;28;20036;-85
2022/04/30 11:53:40;;;;;;;4.95;3.92;;;;;;;17.64;66.60;101749.69;5069533;28;20029;-84
2022/04/30 11:56:07;;;;;;;5.15;3.97;;;;;;;17.57;66.73;101732.69;5070249;28;20028;-85
2022/04/30 11:58:57;;;;;;;;;;;;;;;;;;;;;
2022/04/30 12:01:39;;;;;;;5.50;4.18;;;;;;;17.69;66.81;101778.09;5070716;28;20500;-85
2022/04/30 12:04:11;;;;;;;5.25;4.07;;;;;;;17.94;67.00;101816.13;5054701;28;20032;-84
2022/04/30 12:06:51;;;;;;;4.68;4.15;;;;;;;17.72;67.03;101779.06;5070644;28;20028;-85
2022/04/30 12:09:20;;;;;;;4.38;3.95;;;;;;;17.38;66.74;101719.56;5054246;28;20052;-84